sensor_id;sensor_type;location;lat;lon;timestamp;temperature;humidity
26503;DHT22;14177;51.520;6.764;2023-07-20T00:02:04;18.20;99.90
26503;DHT22;14177;51.520;6.764;2023-07-20T00:04:32;18.10;99.90
26503;DHT22;14177;51.520;6.764;2023-07-20T00:06:59;18.10;99.90
26503;DHT22;14177;51.520;6.764;2023-07-20T00:09:29;18.20;99.90
26503;DHT22;14177;51.520;6.764;2023-07-20T00:11:56;18.20;99.90
26503;DHT22;14177;51.520;6.764;2023-07-20T00:14:24;18.20;99.90
26503;DHT22;14177;51.520;6.764;2023-07-20T00:16:52;18.20;99.90
26503;DHT22;14177;51.520;6.764;2023-07-20T00:19:24;18.20;99.90
26503;DHT22;14177;51.520;6.764;2023-07-20T00:21:53;18.20;99.90
26503;DHT22;14177;51.520;6.764;2023-07-20T00:24:21;18.30;99.90
26503;DHT22;14177;51.520;6.764;2023-07-20T00:26:48;18.20;99.90
26503;DHT22;14177;51.520;6.764;2023-07-20T00:29:16;18.30;99.90
26503;DHT22;14177;51.520;6.764;2023-07-20T00:31:43;18.20;99.90
26503;DHT22;14177;51.520;6.764;2023-07-20T00:34:10;18.20;99.90
26503;DHT22;14177;51.520;6.764;2023-07-20T00:36:39;18.30;99.90
26503;DHT22;14177;51.520;6.764;2023-07-20T00:39:07;18.30;99.90
26503;DHT22;14177;51.520;6.764;2023-07-20T00:41:34;18.30;99.90
26503;DHT22;14177;51.520;6.764;2023-07-20T00:44:02;18.30;99.90
26503;DHT22;14177;51.520;6.764;2023-07-20T00:46:29;18.30;99.90
26503;DHT22;14177;51.520;6.764;2023-07-20T00:48:56;18.20;99.90
26503;DHT22;14177;51.520;6.764;2023-07-20T00:51:25;18.20;99.90
26503;DHT22;14177;51.520;6.764;2023-07-20T00:53:53;18.20;99.90
26503;DHT22;14177;51.520;6.764;2023-07-20T00:56:20;18.10;99.90
26503;DHT22;14177;51.520;6.764;2023-07-20T00:58:48;18.10;99.90
26503;DHT22;14177;51.520;6.764;2023-07-20T01:01:15;18.00;99.90
26503;DHT22;14177;51.520;6.764;2023-07-20T01:03:42;18.00;99.90
26503;DHT22;14177;51.520;6.764;2023-07-20T01:11:56;17.90;99.90
26503;DHT22;14177;51.520;6.764;2023-07-20T01:14:35;17.80;99.90
26503;DHT22;14177;51.520;6.764;2023-07-20T01:17:02;17.80;99.90
26503;DHT22;14177;51.520;6.764;2023-07-20T01:19:30;17.70;99.90
26503;DHT22;14177;51.520;6.764;2023-07-20T01:28:12;17.60;99.90
26503;DHT22;14177;51.520;6.764;2023-07-20T01:31:26;17.60;99.90
26503;DHT22;14177;51.520;6.764;2023-07-20T01:33:57;17.60;99.90
26503;DHT22;14177;51.520;6.764;2023-07-20T01:36:29;17.60;99.90
26503;DHT22;14177;51.520;6.764;2023-07-20T01:39:00;17.60;99.90
26503;DHT22;14177;51.520;6.764;2023-07-20T01:41:27;17.60;99.90
26503;DHT22;14177;51.520;6.764;2023-07-20T01:43:57;17.60;99.90
26503;DHT22;14177;51.520;6.764;2023-07-20T01:46:28;17.60;99.90
26503;DHT22;14177;51.520;6.764;2023-07-20T01:48:56;17.70;99.90
26503;DHT22;14177;51.520;6.764;2023-07-20T01:51:24;17.70;99.90
26503;DHT22;14177;51.520;6.764;2023-07-20T01:53:51;17.70;99.90
26503;DHT22;14177;51.520;6.764;2023-07-20T01:56:18;17.60;99.90
26503;DHT22;14177;51.520;6.764;2023-07-20T01:58:45;17.60;99.90
26503;DHT22;14177;51.520;6.764;2023-07-20T02:01:12;17.60;99.90
26503;DHT22;14177;51.520;6.764;2023-07-20T02:03:39;17.50;99.90
26503;DHT22;14177;51.520;6.764;2023-07-20T02:06:06;17.40;99.90
26503;DHT22;14177;51.520;6.764;2023-07-20T02:08:33;17.40;99.90
26503;DHT22;14177;51.520;6.764;2023-07-20T02:11:00;17.30;99.90
26503;DHT22;14177;51.520;6.764;2023-07-20T02:13:27;17.30;99.90
26503;DHT22;14177;51.520;6.764;2023-07-20T02:15:54;17.30;99.90
26503;DHT22;14177;51.520;6.764;2023-07-20T02:18:21;17.30;99.90
26503;DHT22;14177;51.520;6.764;2023-07-20T02:20:48;17.30;99.90
26503;DHT22;14177;51.520;6.764;2023-07-20T02:23:15;17.20;99.90
26503;DHT22;14177;51.520;6.764;2023-07-20T02:25:42;17.20;99.90
26503;DHT22;14177;51.520;6.764;2023-07-20T02:28:13;17.00;99.90
26503;DHT22;14177;51.520;6.764;2023-07-20T02:30:41;16.90;99.90
26503;DHT22;14177;51.520;6.764;2023-07-20T02:33:08;16.90;99.90
26503;DHT22;14177;51.520;6.764;2023-07-20T02:35:35;16.90;99.90
26503;DHT22;14177;51.520;6.764;2023-07-20T02:38:02;16.90;99.90
26503;DHT22;14177;51.520;6.764;2023-07-20T02:40:29;16.90;99.90
26503;DHT22;14177;51.520;6.764;2023-07-20T02:42:56;16.90;99.90
26503;DHT22;14177;51.520;6.764;2023-07-20T02:45:23;16.80;99.90
26503;DHT22;14177;51.520;6.764;2023-07-20T02:47:51;16.90;99.90
26503;DHT22;14177;51.520;6.764;2023-07-20T02:50:18;16.80;99.90
26503;DHT22;14177;51.520;6.764;2023-07-20T02:52:45;16.80;99.90
26503;DHT22;14177;51.520;6.764;2023-07-20T02:55:12;16.80;99.90
26503;DHT22;14177;51.520;6.764;2023-07-20T02:57:40;16.70;99.90
26503;DHT22;14177;51.520;6.764;2023-07-20T03:00:07;16.70;99.90
26503;DHT22;14177;51.520;6.764;2023-07-20T03:02:35;16.70;99.90
26503;DHT22;14177;51.520;6.764;2023-07-20T03:05:02;16.70;99.90
26503;DHT22;14177;51.520;6.764;2023-07-20T03:07:32;16.70;99.90
26503;DHT22;14177;51.520;6.764;2023-07-20T03:09:59;16.70;99.90
26503;DHT22;14177;51.520;6.764;2023-07-20T03:12:27;16.70;99.90
26503;DHT22;14177;51.520;6.764;2023-07-20T03:14:54;16.70;99.90
26503;DHT22;14177;51.520;6.764;2023-07-20T03:17:23;16.70;99.90
26503;DHT22;14177;51.520;6.764;2023-07-20T03:19:50;16.80;99.90
26503;DHT22;14177;51.520;6.764;2023-07-20T03:22:17;16.80;99.90
26503;DHT22;14177;51.520;6.764;2023-07-20T03:24:45;16.70;99.90
26503;DHT22;14177;51.520;6.764;2023-07-20T03:27:12;16.70;99.90
26503;DHT22;14177;51.520;6.764;2023-07-20T03:29:39;16.70;99.90
26503;DHT22;14177;51.520;6.764;2023-07-20T03:32:06;16.70;99.90
26503;DHT22;14177;51.520;6.764;2023-07-20T03:34:33;16.80;99.90
26503;DHT22;14177;51.520;6.764;2023-07-20T03:37:00;16.80;99.90
26503;DHT22;14177;51.520;6.764;2023-07-20T03:39:28;16.80;99.90
26503;DHT22;14177;51.520;6.764;2023-07-20T03:41:54;16.80;99.90
26503;DHT22;14177;51.520;6.764;2023-07-20T03:44:22;16.80;99.90
26503;DHT22;14177;51.520;6.764;2023-07-20T03:46:49;16.80;99.90
26503;DHT22;14177;51.520;6.764;2023-07-20T03:49:16;16.70;99.90
26503;DHT22;14177;51.520;6.764;2023-07-20T03:51:43;16.70;99.90
26503;DHT22;14177;51.520;6.764;2023-07-20T03:54:10;16.70;99.90
26503;DHT22;14177;51.520;6.764;2023-07-20T03:56:37;16.70;99.90
26503;DHT22;14177;51.520;6.764;2023-07-20T03:59:05;16.70;99.90
26503;DHT22;14177;51.520;6.764;2023-07-20T04:01:31;16.70;99.90
26503;DHT22;14177;51.520;6.764;2023-07-20T04:04:07;16.70;99.90
26503;DHT22;14177;51.520;6.764;2023-07-20T04:06:35;16.70;99.90
26503;DHT22;14177;51.520;6.764;2023-07-20T04:09:03;16.70;99.90
26503;DHT22;14177;51.520;6.764;2023-07-20T04:11:31;16.70;99.90
26503;DHT22;14177;51.520;6.764;2023-07-20T04:13:58;16.70;99.90
26503;DHT22;14177;51.520;6.764;2023-07-20T04:16:25;16.70;99.90
26503;DHT22;14177;51.520;6.764;2023-07-20T04:18:56;16.70;99.90
26503;DHT22;14177;51.520;6.764;2023-07-20T04:21:26;16.70;99.90
26503;DHT22;14177;51.520;6.764;2023-07-20T04:23:56;16.70;99.90
26503;DHT22;14177;51.520;6.764;2023-07-20T04:26:23;16.70;99.90
26503;DHT22;14177;51.520;6.764;2023-07-20T04:28:51;16.70;99.90
26503;DHT22;14177;51.520;6.764;2023-07-20T04:31:31;16.70;99.90
26503;DHT22;14177;51.520;6.764;2023-07-20T04:33:59;16.70;99.90
26503;DHT22;14177;51.520;6.764;2023-07-20T04:36:27;16.70;99.90
26503;DHT22;14177;51.520;6.764;2023-07-20T04:38:54;16.70;99.90
26503;DHT22;14177;51.520;6.764;2023-07-20T04:41:22;16.70;99.90
26503;DHT22;14177;51.520;6.764;2023-07-20T04:43:51;16.60;99.90
26503;DHT22;14177;51.520;6.764;2023-07-20T04:46:24;16.70;99.90
26503;DHT22;14177;51.520;6.764;2023-07-20T04:48:52;16.70;99.90
26503;DHT22;14177;51.520;6.764;2023-07-20T04:51:19;16.70;99.90
26503;DHT22;14177;51.520;6.764;2023-07-20T04:53:49;16.70;99.90
26503;DHT22;14177;51.520;6.764;2023-07-20T04:56:16;16.70;99.90
26503;DHT22;14177;51.520;6.764;2023-07-20T04:58:44;16.70;99.90
26503;DHT22;14177;51.520;6.764;2023-07-20T05:01:12;16.70;99.90
26503;DHT22;14177;51.520;6.764;2023-07-20T05:03:39;16.70;99.90
26503;DHT22;14177;51.520;6.764;2023-07-20T05:06:08;16.70;99.90
26503;DHT22;14177;51.520;6.764;2023-07-20T05:08:35;16.70;99.90
26503;DHT22;14177;51.520;6.764;2023-07-20T05:11:02;16.70;99.90
26503;DHT22;14177;51.520;6.764;2023-07-20T05:13:29;16.70;99.90
26503;DHT22;14177;51.520;6.764;2023-07-20T05:15:56;16.60;99.90
26503;DHT22;14177;51.520;6.764;2023-07-20T05:18:23;16.60;99.90
26503;DHT22;14177;51.520;6.764;2023-07-20T05:20:51;16.70;99.90
26503;DHT22;14177;51.520;6.764;2023-07-20T05:23:19;16.60;99.90
26503;DHT22;14177;51.520;6.764;2023-07-20T05:25:56;16.60;99.90
26503;DHT22;14177;51.520;6.764;2023-07-20T05:28:24;16.60;99.90
26503;DHT22;14177;51.520;6.764;2023-07-20T05:30:54;16.80;99.90
26503;DHT22;14177;51.520;6.764;2023-07-20T05:33:21;16.90;99.90
26503;DHT22;14177;51.520;6.764;2023-07-20T05:35:48;16.90;99.90
26503;DHT22;14177;51.520;6.764;2023-07-20T05:38:15;16.90;99.90
26503;DHT22;14177;51.520;6.764;2023-07-20T05:40:44;17.00;99.90
26503;DHT22;14177;51.520;6.764;2023-07-20T05:43:11;17.00;99.90
26503;DHT22;14177;51.520;6.764;2023-07-20T05:45:41;17.00;99.90
26503;DHT22;14177;51.520;6.764;2023-07-20T05:48:09;17.00;99.90
26503;DHT22;14177;51.520;6.764;2023-07-20T05:50:44;17.10;99.90
26503;DHT22;14177;51.520;6.764;2023-07-20T05:53:11;17.20;99.90
26503;DHT22;14177;51.520;6.764;2023-07-20T05:55:38;17.20;99.90
26503;DHT22;14177;51.520;6.764;2023-07-20T05:58:06;17.30;99.90
26503;DHT22;14177;51.520;6.764;2023-07-20T06:00:33;17.40;99.90
26503;DHT22;14177;51.520;6.764;2023-07-20T06:03:00;17.50;99.90
26503;DHT22;14177;51.520;6.764;2023-07-20T06:05:27;17.50;99.90
26503;DHT22;14177;51.520;6.764;2023-07-20T06:07:55;17.60;99.90
26503;DHT22;14177;51.520;6.764;2023-07-20T06:10:23;17.60;99.90
26503;DHT22;14177;51.520;6.764;2023-07-20T06:12:50;17.70;99.90
26503;DHT22;14177;51.520;6.764;2023-07-20T06:15:28;17.90;99.90
26503;DHT22;14177;51.520;6.764;2023-07-20T06:17:58;17.90;99.90
26503;DHT22;14177;51.520;6.764;2023-07-20T06:20:25;18.00;99.90
26503;DHT22;14177;51.520;6.764;2023-07-20T06:22:52;18.20;99.90
26503;DHT22;14177;51.520;6.764;2023-07-20T06:25:20;18.20;99.90
26503;DHT22;14177;51.520;6.764;2023-07-20T06:27:49;18.40;99.90
26503;DHT22;14177;51.520;6.764;2023-07-20T06:30:20;18.50;99.90
26503;DHT22;14177;51.520;6.764;2023-07-20T06:32:47;18.60;99.90
26503;DHT22;14177;51.520;6.764;2023-07-20T06:35:15;18.70;99.90
26503;DHT22;14177;51.520;6.764;2023-07-20T06:37:42;18.70;99.90
26503;DHT22;14177;51.520;6.764;2023-07-20T06:40:09;18.80;99.90
26503;DHT22;14177;51.520;6.764;2023-07-20T06:42:39;18.90;99.90
26503;DHT22;14177;51.520;6.764;2023-07-20T06:45:09;19.00;99.90
26503;DHT22;14177;51.520;6.764;2023-07-20T06:47:38;19.00;99.90
26503;DHT22;14177;51.520;6.764;2023-07-20T06:50:10;18.80;99.90
26503;DHT22;14177;51.520;6.764;2023-07-20T06:52:43;18.90;99.90
26503;DHT22;14177;51.520;6.764;2023-07-20T06:55:10;19.00;99.90
26503;DHT22;14177;51.520;6.764;2023-07-20T06:57:37;18.70;99.90
26503;DHT22;14177;51.520;6.764;2023-07-20T07:00:04;18.90;99.90
26503;DHT22;14177;51.520;6.764;2023-07-20T07:02:33;19.00;99.90
26503;DHT22;14177;51.520;6.764;2023-07-20T07:05:01;19.00;99.90
26503;DHT22;14177;51.520;6.764;2023-07-20T07:07:44;19.00;99.90
26503;DHT22;14177;51.520;6.764;2023-07-20T07:10:11;18.90;99.90
26503;DHT22;14177;51.520;6.764;2023-07-20T07:12:38;19.00;99.90
26503;DHT22;14177;51.520;6.764;2023-07-20T07:15:06;18.90;99.90
26503;DHT22;14177;51.520;6.764;2023-07-20T07:17:34;19.00;99.90
26503;DHT22;14177;51.520;6.764;2023-07-20T07:20:05;19.00;99.90
26503;DHT22;14177;51.520;6.764;2023-07-20T07:22:36;19.00;99.90
26503;DHT22;14177;51.520;6.764;2023-07-20T07:25:03;19.00;99.90
26503;DHT22;14177;51.520;6.764;2023-07-20T07:27:30;19.00;99.90
26503;DHT22;14177;51.520;6.764;2023-07-20T07:29:57;19.00;99.90
26503;DHT22;14177;51.520;6.764;2023-07-20T07:32:24;19.00;99.90
26503;DHT22;14177;51.520;6.764;2023-07-20T07:34:51;18.80;99.90
26503;DHT22;14177;51.520;6.764;2023-07-20T07:37:18;18.90;99.90
26503;DHT22;14177;51.520;6.764;2023-07-20T07:39:46;19.00;99.90
26503;DHT22;14177;51.520;6.764;2023-07-20T07:42:13;19.30;99.90
26503;DHT22;14177;51.520;6.764;2023-07-20T07:44:40;19.60;99.90
26503;DHT22;14177;51.520;6.764;2023-07-20T07:47:07;20.00;99.90
26503;DHT22;14177;51.520;6.764;2023-07-20T07:49:33;20.30;99.90
26503;DHT22;14177;51.520;6.764;2023-07-20T07:52:00;20.60;99.90
26503;DHT22;14177;51.520;6.764;2023-07-20T07:54:28;20.80;99.90
26503;DHT22;14177;51.520;6.764;2023-07-20T07:56:56;21.00;99.90
26503;DHT22;14177;51.520;6.764;2023-07-20T07:59:23;21.20;99.90
26503;DHT22;14177;51.520;6.764;2023-07-20T08:01:50;21.30;99.90
26503;DHT22;14177;51.520;6.764;2023-07-20T08:04:16;21.10;99.90
26503;DHT22;14177;51.520;6.764;2023-07-20T08:06:44;21.00;99.90
26503;DHT22;14177;51.520;6.764;2023-07-20T08:09:11;20.90;99.90
26503;DHT22;14177;51.520;6.764;2023-07-20T08:11:39;20.70;99.90
26503;DHT22;14177;51.520;6.764;2023-07-20T08:14:06;20.40;99.90
26503;DHT22;14177;51.520;6.764;2023-07-20T08:16:33;20.30;99.90
26503;DHT22;14177;51.520;6.764;2023-07-20T08:19:00;20.20;99.90
26503;DHT22;14177;51.520;6.764;2023-07-20T08:21:27;20.20;99.90
26503;DHT22;14177;51.520;6.764;2023-07-20T08:23:54;20.10;99.90
26503;DHT22;14177;51.520;6.764;2023-07-20T08:26:20;20.30;99.90
26503;DHT22;14177;51.520;6.764;2023-07-20T08:28:49;20.60;99.90
26503;DHT22;14177;51.520;6.764;2023-07-20T08:31:16;20.90;99.90
26503;DHT22;14177;51.520;6.764;2023-07-20T08:33:43;21.10;99.90
26503;DHT22;14177;51.520;6.764;2023-07-20T08:36:10;21.30;99.90
26503;DHT22;14177;51.520;6.764;2023-07-20T08:38:38;21.40;99.90
26503;DHT22;14177;51.520;6.764;2023-07-20T08:41:05;21.50;99.90
26503;DHT22;14177;51.520;6.764;2023-07-20T08:43:33;21.80;99.90
26503;DHT22;14177;51.520;6.764;2023-07-20T08:46:02;21.90;99.90
26503;DHT22;14177;51.520;6.764;2023-07-20T08:48:30;22.20;99.90
26503;DHT22;14177;51.520;6.764;2023-07-20T08:50:58;22.40;99.90
26503;DHT22;14177;51.520;6.764;2023-07-20T08:53:28;22.60;99.90
26503;DHT22;14177;51.520;6.764;2023-07-20T08:55:56;23.00;99.90
26503;DHT22;14177;51.520;6.764;2023-07-20T08:58:25;23.20;98.40
26503;DHT22;14177;51.520;6.764;2023-07-20T09:00:53;23.40;96.70
26503;DHT22;14177;51.520;6.764;2023-07-20T09:03:21;23.70;96.30
26503;DHT22;14177;51.520;6.764;2023-07-20T09:05:48;23.80;96.30
26503;DHT22;14177;51.520;6.764;2023-07-20T09:08:16;24.20;96.20
26503;DHT22;14177;51.520;6.764;2023-07-20T09:10:43;24.20;95.60
26503;DHT22;14177;51.520;6.764;2023-07-20T09:13:14;24.30;94.80
26503;DHT22;14177;51.520;6.764;2023-07-20T09:15:53;24.20;94.60
26503;DHT22;14177;51.520;6.764;2023-07-20T09:18:38;22.90;97.60
26503;DHT22;14177;51.520;6.764;2023-07-20T09:21:06;23.00;98.60
26503;DHT22;14177;51.520;6.764;2023-07-20T09:23:37;22.50;97.10
26503;DHT22;14177;51.520;6.764;2023-07-20T09:26:11;22.00;99.10
26503;DHT22;14177;51.520;6.764;2023-07-20T09:28:51;21.90;99.70
26503;DHT22;14177;51.520;6.764;2023-07-20T09:31:21;21.60;99.50
26503;DHT22;14177;51.520;6.764;2023-07-20T09:33:51;22.30;99.90
26503;DHT22;14177;51.520;6.764;2023-07-20T09:36:22;23.00;99.90
26503;DHT22;14177;51.520;6.764;2023-07-20T09:39:09;23.60;99.50
26503;DHT22;14177;51.520;6.764;2023-07-20T09:41:40;23.10;95.30
26503;DHT22;14177;51.520;6.764;2023-07-20T09:44:14;22.50;95.40
26503;DHT22;14177;51.520;6.764;2023-07-20T09:46:50;22.10;97.10
26503;DHT22;14177;51.520;6.764;2023-07-20T09:49:20;22.90;98.00
26503;DHT22;14177;51.520;6.764;2023-07-20T09:51:50;22.80;93.70
26503;DHT22;14177;51.520;6.764;2023-07-20T09:54:20;23.20;93.40
26503;DHT22;14177;51.520;6.764;2023-07-20T09:56:48;23.80;93.20
26503;DHT22;14177;51.520;6.764;2023-07-20T09:59:17;24.20;92.30
26503;DHT22;14177;51.520;6.764;2023-07-20T10:01:45;24.80;90.70
26503;DHT22;14177;51.520;6.764;2023-07-20T10:04:13;24.80;90.30
26503;DHT22;14177;51.520;6.764;2023-07-20T10:06:43;25.20;87.40
26503;DHT22;14177;51.520;6.764;2023-07-20T10:09:15;25.70;84.00
26503;DHT22;14177;51.520;6.764;2023-07-20T10:11:48;26.00;82.00
26503;DHT22;14177;51.520;6.764;2023-07-20T10:14:41;26.00;76.00
26503;DHT22;14177;51.520;6.764;2023-07-20T10:17:14;25.90;76.00
26503;DHT22;14177;51.520;6.764;2023-07-20T10:19:50;25.80;79.00
26503;DHT22;14177;51.520;6.764;2023-07-20T10:22:27;26.00;76.30
26503;DHT22;14177;51.520;6.764;2023-07-20T10:25:07;26.40;77.80
26503;DHT22;14177;51.520;6.764;2023-07-20T10:27:35;26.30;73.40
26503;DHT22;14177;51.520;6.764;2023-07-20T10:30:03;26.10;75.10
26503;DHT22;14177;51.520;6.764;2023-07-20T10:32:31;26.10;74.70
26503;DHT22;14177;51.520;6.764;2023-07-20T10:34:59;25.60;74.30
26503;DHT22;14177;51.520;6.764;2023-07-20T10:37:45;24.90;73.80
26503;DHT22;14177;51.520;6.764;2023-07-20T10:42:57;25.40;72.80
26503;DHT22;14177;51.520;6.764;2023-07-20T10:48:06;26.00;70.90
26503;DHT22;14177;51.520;6.764;2023-07-20T10:50:41;26.40;73.30
26503;DHT22;14177;51.520;6.764;2023-07-20T10:53:13;26.70;71.30
26503;DHT22;14177;51.520;6.764;2023-07-20T10:55:42;26.90;70.60
26503;DHT22;14177;51.520;6.764;2023-07-20T10:58:14;27.00;70.80
26503;DHT22;14177;51.520;6.764;2023-07-20T11:01:01;27.20;70.90
26503;DHT22;14177;51.520;6.764;2023-07-20T11:03:32;26.90;67.30
26503;DHT22;14177;51.520;6.764;2023-07-20T11:09:14;27.10;69.30
26503;DHT22;14177;51.520;6.764;2023-07-20T11:11:48;27.50;69.50
26503;DHT22;14177;51.520;6.764;2023-07-20T11:14:21;27.90;68.30
26503;DHT22;14177;51.520;6.764;2023-07-20T11:16:49;28.20;67.90
26503;DHT22;14177;51.520;6.764;2023-07-20T11:19:19;28.40;67.10
26503;DHT22;14177;51.520;6.764;2023-07-20T11:21:55;28.50;67.30
26503;DHT22;14177;51.520;6.764;2023-07-20T11:24:30;27.90;65.00
26503;DHT22;14177;51.520;6.764;2023-07-20T11:26:58;27.70;66.90
26503;DHT22;14177;51.520;6.764;2023-07-20T11:29:27;27.40;67.50
26503;DHT22;14177;51.520;6.764;2023-07-20T11:32:00;26.30;67.60
26503;DHT22;14177;51.520;6.764;2023-07-20T11:34:32;26.60;68.60
26503;DHT22;14177;51.520;6.764;2023-07-20T11:37:00;25.80;67.60
26503;DHT22;14177;51.520;6.764;2023-07-20T11:39:31;26.20;69.80
26503;DHT22;14177;51.520;6.764;2023-07-20T11:41:58;26.70;67.40
26503;DHT22;14177;51.520;6.764;2023-07-20T11:44:27;26.50;66.00
26503;DHT22;14177;51.520;6.764;2023-07-20T11:49:40;27.20;66.40
26503;DHT22;14177;51.520;6.764;2023-07-20T11:52:15;27.20;67.90
26503;DHT22;14177;51.520;6.764;2023-07-20T11:54:44;26.60;65.70
26503;DHT22;14177;51.520;6.764;2023-07-20T11:57:16;26.20;67.10
26503;DHT22;14177;51.520;6.764;2023-07-20T11:59:54;26.70;69.80
26503;DHT22;14177;51.520;6.764;2023-07-20T12:02:27;26.80;67.90
26503;DHT22;14177;51.520;6.764;2023-07-20T12:04:55;26.80;68.00
26503;DHT22;14177;51.520;6.764;2023-07-20T12:07:25;27.10;65.80
26503;DHT22;14177;51.520;6.764;2023-07-20T12:10:11;27.00;66.90
26503;DHT22;14177;51.520;6.764;2023-07-20T12:12:39;27.00;67.00
26503;DHT22;14177;51.520;6.764;2023-07-20T12:15:19;27.10;70.00
26503;DHT22;14177;51.520;6.764;2023-07-20T12:17:52;27.90;68.10
26503;DHT22;14177;51.520;6.764;2023-07-20T12:23:02;28.60;63.70
26503;DHT22;14177;51.520;6.764;2023-07-20T12:28:09;28.10;63.10
26503;DHT22;14177;51.520;6.764;2023-07-20T12:30:38;27.40;62.80
26503;DHT22;14177;51.520;6.764;2023-07-20T12:33:05;26.40;62.90
26503;DHT22;14177;51.520;6.764;2023-07-20T12:35:33;26.00;64.30
26503;DHT22;14177;51.520;6.764;2023-07-20T12:38:00;26.30;64.70
26503;DHT22;14177;51.520;6.764;2023-07-20T12:40:27;26.40;64.20
26503;DHT22;14177;51.520;6.764;2023-07-20T12:42:54;26.60;65.60
26503;DHT22;14177;51.520;6.764;2023-07-20T12:45:21;27.50;67.30
26503;DHT22;14177;51.520;6.764;2023-07-20T12:47:48;27.50;64.10
26503;DHT22;14177;51.520;6.764;2023-07-20T12:50:16;27.50;63.40
26503;DHT22;14177;51.520;6.764;2023-07-20T12:52:43;27.30;62.90
26503;DHT22;14177;51.520;6.764;2023-07-20T12:55:10;26.60;64.70
26503;DHT22;14177;51.520;6.764;2023-07-20T12:57:38;26.10;65.60
26503;DHT22;14177;51.520;6.764;2023-07-20T13:00:06;25.90;66.30
26503;DHT22;14177;51.520;6.764;2023-07-20T13:02:36;25.40;68.40
26503;DHT22;14177;51.520;6.764;2023-07-20T13:05:03;25.60;69.40
26503;DHT22;14177;51.520;6.764;2023-07-20T13:07:32;25.60;69.20
26503;DHT22;14177;51.520;6.764;2023-07-20T13:10:04;25.40;68.70
26503;DHT22;14177;51.520;6.764;2023-07-20T13:12:33;25.70;69.60
26503;DHT22;14177;51.520;6.764;2023-07-20T13:15:03;25.70;67.90
26503;DHT22;14177;51.520;6.764;2023-07-20T13:17:38;26.20;68.50
26503;DHT22;14177;51.520;6.764;2023-07-20T13:20:07;26.70;68.50
26503;DHT22;14177;51.520;6.764;2023-07-20T13:22:38;27.60;66.70
26503;DHT22;14177;51.520;6.764;2023-07-20T13:25:06;27.20;63.80
26503;DHT22;14177;51.520;6.764;2023-07-20T13:27:34;26.90;65.00
26503;DHT22;14177;51.520;6.764;2023-07-20T13:30:01;26.60;63.80
26503;DHT22;14177;51.520;6.764;2023-07-20T13:32:33;26.10;65.70
26503;DHT22;14177;51.520;6.764;2023-07-20T13:35:00;25.40;66.00
26503;DHT22;14177;51.520;6.764;2023-07-20T13:37:28;25.40;66.90
26503;DHT22;14177;51.520;6.764;2023-07-20T13:39:55;25.10;67.20
26503;DHT22;14177;51.520;6.764;2023-07-20T13:42:23;25.00;68.00
26503;DHT22;14177;51.520;6.764;2023-07-20T13:44:50;25.20;66.60
26503;DHT22;14177;51.520;6.764;2023-07-20T13:47:17;25.80;67.30
26503;DHT22;14177;51.520;6.764;2023-07-20T13:49:47;25.70;66.80
26503;DHT22;14177;51.520;6.764;2023-07-20T13:52:15;26.10;68.10
26503;DHT22;14177;51.520;6.764;2023-07-20T13:54:44;26.40;66.40
26503;DHT22;14177;51.520;6.764;2023-07-20T13:57:18;26.80;65.30
26503;DHT22;14177;51.520;6.764;2023-07-20T13:59:45;26.80;64.80
26503;DHT22;14177;51.520;6.764;2023-07-20T14:02:14;25.70;65.10
26503;DHT22;14177;51.520;6.764;2023-07-20T14:04:44;25.70;65.20
26503;DHT22;14177;51.520;6.764;2023-07-20T14:07:11;25.40;66.70
26503;DHT22;14177;51.520;6.764;2023-07-20T14:09:39;25.20;67.60
26503;DHT22;14177;51.520;6.764;2023-07-20T14:12:26;24.90;68.50
26503;DHT22;14177;51.520;6.764;2023-07-20T14:14:54;24.80;69.10
26503;DHT22;14177;51.520;6.764;2023-07-20T14:17:23;25.10;69.80
26503;DHT22;14177;51.520;6.764;2023-07-20T14:19:50;25.20;69.60
26503;DHT22;14177;51.520;6.764;2023-07-20T14:22:20;25.40;70.00
26503;DHT22;14177;51.520;6.764;2023-07-20T14:24:46;25.60;69.90
26503;DHT22;14177;51.520;6.764;2023-07-20T14:27:13;25.70;70.50
26503;DHT22;14177;51.520;6.764;2023-07-20T14:29:40;26.00;69.30
26503;DHT22;14177;51.520;6.764;2023-07-20T14:32:07;26.40;69.00
26503;DHT22;14177;51.520;6.764;2023-07-20T14:34:34;26.90;67.90
26503;DHT22;14177;51.520;6.764;2023-07-20T14:37:05;27.40;67.20
26503;DHT22;14177;51.520;6.764;2023-07-20T14:39:32;27.70;64.60
26503;DHT22;14177;51.520;6.764;2023-07-20T14:41:59;27.70;65.20
26503;DHT22;14177;51.520;6.764;2023-07-20T14:44:26;27.90;65.20
26503;DHT22;14177;51.520;6.764;2023-07-20T14:46:53;26.90;63.40
26503;DHT22;14177;51.520;6.764;2023-07-20T14:49:38;27.40;66.40
26503;DHT22;14177;51.520;6.764;2023-07-20T14:52:06;27.60;65.10
26503;DHT22;14177;51.520;6.764;2023-07-20T14:54:41;27.40;64.20
26503;DHT22;14177;51.520;6.764;2023-07-20T14:57:08;26.60;63.00
26503;DHT22;14177;51.520;6.764;2023-07-20T14:59:41;25.90;64.30
26503;DHT22;14177;51.520;6.764;2023-07-20T15:02:11;25.80;65.70
26503;DHT22;14177;51.520;6.764;2023-07-20T15:04:48;25.60;66.80
26503;DHT22;14177;51.520;6.764;2023-07-20T15:07:20;25.60;68.30
26503;DHT22;14177;51.520;6.764;2023-07-20T15:09:50;25.90;67.80
26503;DHT22;14177;51.520;6.764;2023-07-20T15:12:17;26.00;66.90
26503;DHT22;14177;51.520;6.764;2023-07-20T15:15:01;26.20;67.80
26503;DHT22;14177;51.520;6.764;2023-07-20T15:17:28;26.40;66.50
26503;DHT22;14177;51.520;6.764;2023-07-20T15:19:55;26.90;66.70
26503;DHT22;14177;51.520;6.764;2023-07-20T15:22:22;27.30;65.70
26503;DHT22;14177;51.520;6.764;2023-07-20T15:24:50;27.10;64.50
26503;DHT22;14177;51.520;6.764;2023-07-20T15:27:17;27.00;64.50
26503;DHT22;14177;51.520;6.764;2023-07-20T15:29:43;26.60;65.40
26503;DHT22;14177;51.520;6.764;2023-07-20T15:32:10;26.70;67.00
26503;DHT22;14177;51.520;6.764;2023-07-20T15:34:37;26.80;66.30
26503;DHT22;14177;51.520;6.764;2023-07-20T15:37:04;26.90;66.60
26503;DHT22;14177;51.520;6.764;2023-07-20T15:39:31;26.90;65.50
26503;DHT22;14177;51.520;6.764;2023-07-20T15:41:58;27.10;66.50
26503;DHT22;14177;51.520;6.764;2023-07-20T15:44:25;27.20;65.70
26503;DHT22;14177;51.520;6.764;2023-07-20T15:46:52;27.40;65.30
26503;DHT22;14177;51.520;6.764;2023-07-20T15:49:20;27.70;63.90
26503;DHT22;14177;51.520;6.764;2023-07-20T15:51:47;27.50;62.30
26503;DHT22;14177;51.520;6.764;2023-07-20T15:54:14;27.80;63.30
26503;DHT22;14177;51.520;6.764;2023-07-20T15:56:42;27.40;61.40
26503;DHT22;14177;51.520;6.764;2023-07-20T15:59:12;26.90;62.50
26503;DHT22;14177;51.520;6.764;2023-07-20T16:01:41;27.20;64.20
26503;DHT22;14177;51.520;6.764;2023-07-20T16:04:11;27.40;63.40
26503;DHT22;14177;51.520;6.764;2023-07-20T16:06:41;27.20;63.90
26503;DHT22;14177;51.520;6.764;2023-07-20T16:09:08;26.90;61.80
26503;DHT22;14177;51.520;6.764;2023-07-20T16:11:35;26.90;63.00